Time;durP1;ratioP1;P1;durP2;ratioP2;P2;SDS_P1;SDS_P2;PMS_P1;PMS_P2;Temp;Humidity;BMP_temperature;BMP_pressure;BME280_temperature;BME280_humidity;BME280_pressure;Samples;Min_cycle;Max_cycle;Signal;HPM_P1;HPM_P2
2023/10/06 00:01:51;;;;;;;9.70;9.40;;;9.20;99.90;;;;;;5088625;28;20245;-87
2023/10/06 00:04:22;;;;;;;9.70;9.40;;;9.20;99.90;;;;;;5086646;28;20252;-87
2023/10/06 00:06:49;;;;;;;9.60;9.30;;;9.20;99.90;;;;;;5085982;28;20325;-87
2023/10/06 00:12:05;;;;;;;9.43;9.13;;;9.00;99.90;;;;;;5089281;28;20226;-87
2023/10/06 00:14:43;;;;;;;9.47;9.17;;;9.00;99.90;;;;;;5085445;28;20707;-87
2023/10/06 00:17:15;;;;;;;9.70;9.40;;;9.00;99.90;;;;;;5086233;28;20233;-87
2023/10/06 00:19:43;;;;;;;9.50;9.20;;;8.90;99.90;;;;;;5085421;28;20240;-87
2023/10/06 00:22:18;;;;;;;9.70;9.40;;;9.00;99.90;;;;;;5085556;28;20234;-87
2023/10/06 00:25:11;;;;;;;9.60;9.30;;;8.90;99.90;;;;;;5085233;28;20284;-87
2023/10/06 00:27:39;;;;;;;9.40;9.10;;;8.90;99.90;;;;;;5086127;28;20218;-87
2023/10/06 00:30:11;;;;;;;9.47;9.17;;;8.90;99.90;;;;;;5085480;28;20248;-87
2023/10/06 00:32:42;;;;;;;9.27;8.97;;;8.80;99.90;;;;;;5090557;28;20265;-87
2023/10/06 00:37:53;;;;;;;9.37;9.07;;;8.80;99.90;;;;;;5092950;28;20218;-87
2023/10/06 00:40:24;;;;;;;9.40;9.10;;;8.70;99.90;;;;;;5096621;28;20238;-87
2023/10/06 00:42:56;;;;;;;9.53;9.23;;;8.70;99.90;;;;;;5094244;28;20237;-86
2023/10/06 00:48:14;;;;;;;9.70;9.40;;;8.60;99.90;;;;;;5085718;28;20240;-87
2023/10/06 00:50:57;;;;;;;9.50;9.20;;;8.60;99.90;;;;;;5085680;28;20234;-87
2023/10/06 00:53:35;;;;;;;9.27;8.97;;;8.60;99.90;;;;;;5085887;28;20240;-87
2023/10/06 00:56:11;;;;;;;9.40;9.10;;;8.60;99.90;;;;;;5085337;28;20232;-87
2023/10/06 00:58:41;;;;;;;9.27;8.97;;;8.60;99.90;;;;;;5085690;28;20233;-87
2023/10/06 01:01:12;;;;;;;9.53;9.23;;;8.50;99.90;;;;;;5085872;28;20229;-87
2023/10/06 01:03:41;;;;;;;9.60;9.30;;;8.50;99.90;;;;;;5085456;28;20313;-87
2023/10/06 01:09:06;;;;;;;9.40;9.10;;;8.50;99.90;;;;;;5086032;28;20221;-87
2023/10/06 01:14:34;;;;;;;9.60;9.30;;;8.50;99.90;;;;;;5091546;28;20226;-87
2023/10/06 01:25:20;;;;;;;9.40;9.10;;;8.30;99.90;;;;;;5083712;28;20237;-87
2023/10/06 01:27:50;;;;;;;9.60;9.30;;;8.20;99.90;;;;;;5086831;28;20298;-87
2023/10/06 01:30:20;;;;;;;9.40;9.10;;;8.20;99.90;;;;;;5087890;28;20218;-87
2023/10/06 01:32:50;;;;;;;9.60;9.30;;;8.20;99.90;;;;;;5087951;28;20253;-87
2023/10/06 01:35:23;;;;;;;9.90;9.60;;;8.10;99.90;;;;;;5087949;28;20315;-87
2023/10/06 01:38:00;;;;;;;9.70;9.40;;;8.10;99.90;;;;;;5087430;28;20218;-87
2023/10/06 01:40:43;;;;;;;9.63;9.33;;;8.10;99.90;;;;;;5088081;28;20261;-87
2023/10/06 01:43:14;;;;;;;9.63;9.33;;;8.10;99.90;;;;;;5088045;28;20238;-88
2023/10/06 01:45:44;;;;;;;9.63;9.33;;;8.10;99.90;;;;;;5094262;28;20235;-87
2023/10/06 01:51:13;;;;;;;9.50;9.20;;;8.10;99.90;;;;;;5088154;28;20222;-87
2023/10/06 01:56:37;;;;;;;9.60;9.30;;;8.00;99.90;;;;;;5085124;28;20285;-87
2023/10/06 01:59:05;;;;;;;9.83;9.53;;;7.90;99.90;;;;;;5096015;28;20278;-87
2023/10/06 02:01:34;;;;;;;9.50;9.20;;;7.90;99.90;;;;;;5088292;28;20248;-87
2023/10/06 02:04:06;;;;;;;9.70;9.40;;;7.90;99.90;;;;;;5087067;28;20253;-88
2023/10/06 02:06:35;;;;;;;9.60;9.30;;;7.90;99.90;;;;;;5091257;28;20280;-88
2023/10/06 02:09:05;;;;;;;9.63;9.33;;;7.90;99.90;;;;;;5092344;28;20237;-87
2023/10/06 02:11:40;;;;;;;9.57;9.27;;;7.90;99.90;;;;;;5088207;28;20350;-87
2023/10/06 02:16:49;;;;;;;9.53;9.23;;;7.90;99.90;;;;;;5086390;28;20234;-86
2023/10/06 02:19:17;;;;;;;9.67;9.37;;;7.80;99.90;;;;;;5087291;28;20253;-85
2023/10/06 02:21:48;;;;;;;9.70;9.40;;;7.80;99.90;;;;;;5087599;28;20226;-87
2023/10/06 02:24:20;;;;;;;9.73;9.43;;;7.80;99.90;;;;;;5087537;28;20276;-87
2023/10/06 02:29:43;;;;;;;9.80;9.50;;;7.70;99.90;;;;;;5086512;28;20233;-87
2023/10/06 02:32:11;;;;;;;9.60;9.30;;;7.70;99.90;;;;;;5087169;28;20272;-87
2023/10/06 02:34:40;;;;;;;9.60;9.30;;;7.70;99.90;;;;;;5087284;28;20234;-87
2023/10/06 02:37:09;;;;;;;9.90;9.60;;;7.60;99.90;;;;;;5086750;28;20230;-87
2023/10/06 02:39:43;;;;;;;9.77;9.47;;;7.60;99.90;;;;;;5086827;28;20234;-86
2023/10/06 02:42:13;;;;;;;9.40;9.10;;;7.60;99.90;;;;;;5087290;28;20238;-87
2023/10/06 02:47:35;;;;;;;9.40;9.10;;;7.40;99.90;;;;;;5086600;28;20221;-87
2023/10/06 02:50:07;;;;;;;9.70;9.40;;;7.40;99.90;;;;;;5087771;28;20226;-87
2023/10/06 02:55:32;;;;;;;9.60;9.30;;;7.30;99.90;;;;;;5086491;28;20292;-87
2023/10/06 02:58:00;;;;;;;10.00;9.70;;;7.30;99.90;;;;;;5091858;28;20234;-87
2023/10/06 03:00:32;;;;;;;9.20;8.90;;;7.30;99.90;;;;;;5086017;28;20222;-87
2023/10/06 03:03:12;;;;;;;9.60;9.30;;;7.30;99.90;;;;;;5085834;28;20226;-86
2023/10/06 03:05:53;;;;;;;9.40;9.10;;;7.30;99.90;;;;;;5092007;28;20238;-87
2023/10/06 03:08:22;;;;;;;10.20;9.90;;;7.20;99.90;;;;;;5099071;28;20241;-87
2023/10/06 03:11:12;;;;;;;9.60;9.30;;;7.20;99.90;;;;;;5092224;28;20218;-87
2023/10/06 03:13:54;;;;;;;9.70;9.40;;;7.20;99.90;;;;;;5089382;28;20279;-87
2023/10/06 03:16:39;;;;;;;9.87;9.57;;;7.20;99.90;;;;;;5097241;28;20214;-87
2023/10/06 03:21:50;;;;;;;9.63;9.33;;;7.20;99.90;;;;;;5086834;28;20305;-87
2023/10/06 03:24:31;;;;;;;9.63;9.33;;;7.20;99.90;;;;;;5086554;28;20225;-87
2023/10/06 03:27:04;;;;;;;10.20;9.90;;;7.10;99.90;;;;;;5086790;28;20229;-87
2023/10/06 03:29:51;;;;;;;9.90;9.60;;;7.20;99.90;;;;;;5086652;28;20254;-87
2023/10/06 03:32:27;;;;;;;9.37;9.07;;;7.10;99.90;;;;;;5087071;28;20229;-87
2023/10/06 03:35:11;;;;;;;9.50;9.20;;;7.10;99.90;;;;;;5086581;28;20217;-86
2023/10/06 03:37:51;;;;;;;9.40;9.10;;;7.20;99.90;;;;;;5086606;28;20226;-87
2023/10/06 03:43:08;;;;;;;9.37;9.07;;;7.20;99.90;;;;;;5086420;28;20214;-86
2023/10/06 03:48:24;;;;;;;9.70;9.40;;;7.20;99.90;;;;;;5101003;28;20224;-86
2023/10/06 03:53:40;;;;;;;9.40;9.10;;;7.20;99.90;;;;;;5059444;28;20230;-88
2023/10/06 03:56:19;;;;;;;9.70;9.40;;;7.20;99.90;;;;;;5098082;28;20214;-88
2023/10/06 03:58:49;;;;;;;9.73;9.43;;;7.20;99.90;;;;;;5091524;28;20221;-87
2023/10/06 04:01:20;;;;;;;9.50;9.20;;;7.20;99.90;;;;;;5090974;28;20229;-87
2023/10/06 04:03:48;;;;;;;9.57;9.27;;;7.20;99.90;;;;;;5090597;28;20226;-87
2023/10/06 04:06:15;;;;;;;9.33;9.03;;;7.20;99.90;;;;;;5089911;28;20286;-87
2023/10/06 04:08:46;;;;;;;9.50;9.20;;;7.20;99.90;;;;;;5094771;28;20368;-86
2023/10/06 04:11:15;;;;;;;9.30;9.00;;;7.20;99.90;;;;;;5094018;28;20348;-87
2023/10/06 04:13:48;;;;;;;9.10;8.80;;;7.20;99.90;;;;;;5089331;28;20226;-87
2023/10/06 04:19:03;;;;;;;9.10;8.80;;;7.20;99.90;;;;;;5063217;28;20280;-82
2023/10/06 04:21:30;;;;;;;9.40;9.10;;;7.10;99.90;;;;;;5066261;28;20234;-82
2023/10/06 04:24:00;;;;;;;9.13;8.83;;;7.10;99.90;;;;;;5066413;28;20278;-83
2023/10/06 04:26:28;;;;;;;9.20;8.90;;;7.10;99.90;;;;;;5067158;28;20230;-83
2023/10/06 04:29:01;;;;;;;9.33;9.03;;;7.10;99.90;;;;;;5067264;28;20235;-82
2023/10/06 04:31:28;;;;;;;9.50;9.20;;;7.10;99.90;;;;;;5066816;28;20242;-82
2023/10/06 04:34:07;;;;;;;9.50;9.20;;;7.10;99.90;;;;;;5058889;28;20259;-82
2023/10/06 04:36:37;;;;;;;9.03;8.73;;;7.00;99.90;;;;;;5069245;28;20294;-82
2023/10/06 04:39:09;;;;;;;9.10;8.80;;;7.00;99.90;;;;;;5067845;28;20231;-82
2023/10/06 04:41:37;;;;;;;9.00;8.70;;;7.00;99.90;;;;;;5069119;28;20235;-82
2023/10/06 04:44:07;;;;;;;9.33;9.03;;;7.00;99.90;;;;;;5072523;28;20231;-81
2023/10/06 04:46:35;;;;;;;8.90;8.60;;;7.00;99.90;;;;;;5071278;28;20226;-82
2023/10/06 04:49:02;;;;;;;9.20;8.90;;;7.00;99.90;;;;;;5058827;28;20231;-82
2023/10/06 04:51:31;;;;;;;9.00;8.70;;;7.00;99.90;;;;;;5059570;28;20238;-82
2023/10/06 04:54:02;;;;;;;8.87;8.63;;;7.00;99.90;;;;;;5066166;28;20270;-82
2023/10/06 04:56:32;;;;;;;8.67;8.47;;;7.00;99.90;;;;;;5067712;28;20254;-81
2023/10/06 04:59:00;;;;;;;9.17;8.87;;;7.00;99.90;;;;;;5068281;28;20231;-82
2023/10/06 05:01:32;;;;;;;8.90;8.63;;;7.00;99.90;;;;;;5069698;28;20301;-82
2023/10/06 05:03:59;;;;;;;9.00;8.70;;;7.00;99.90;;;;;;5071407;28;20262;-82
2023/10/06 05:06:38;;;;;;;9.03;8.73;;;7.00;99.90;;;;;;5070942;28;20317;-82
2023/10/06 05:09:07;;;;;;;9.50;9.20;;;7.00;99.90;;;;;;5072038;28;20245;-81
2023/10/06 05:11:38;;;;;;;9.57;9.27;;;6.90;99.90;;;;;;5072078;28;20353;-82
2023/10/06 05:14:08;;;;;;;9.50;9.20;;;6.90;99.90;;;;;;5058253;28;20301;-82
2023/10/06 05:16:37;;;;;;;9.90;9.60;;;6.90;99.90;;;;;;5050570;28;20248;-81
2023/10/06 05:19:05;;;;;;;10.00;9.70;;;6.80;99.90;;;;;;5051470;28;20238;-83
2023/10/06 05:21:35;;;;;;;10.43;10.13;;;6.80;99.90;;;;;;5050670;28;20499;-85
2023/10/06 05:24:04;;;;;;;10.17;9.87;;;6.80;99.90;;;;;;5051934;28;20290;-84
2023/10/06 05:26:31;;;;;;;10.30;10.00;;;6.90;99.90;;;;;;5050935;28;20243;-83
2023/10/06 05:29:01;;;;;;;9.90;9.60;;;6.90;99.90;;;;;;5049783;28;20245;-84
2023/10/06 05:31:28;;;;;;;10.10;9.80;;;6.80;99.90;;;;;;5049995;28;20239;-83
2023/10/06 05:33:57;;;;;;;9.87;9.57;;;6.80;99.90;;;;;;5054844;28;20223;-85
2023/10/06 05:36:24;;;;;;;10.00;9.70;;;6.80;99.90;;;;;;5048906;28;20235;-84
2023/10/06 05:38:51;;;;;;;10.13;9.83;;;6.70;99.90;;;;;;5049759;28;20226;-84
2023/10/06 05:41:23;;;;;;;10.20;9.90;;;6.70;99.90;;;;;;5050932;28;20246;-84
2023/10/06 05:43:51;;;;;;;10.30;10.00;;;6.70;99.90;;;;;;5046967;28;20219;-82
2023/10/06 05:46:19;;;;;;;9.90;9.60;;;6.60;99.90;;;;;;5043313;28;20299;-82
2023/10/06 05:48:46;;;;;;;10.00;9.70;;;6.60;99.90;;;;;;5045386;28;20242;-81
2023/10/06 05:51:21;;;;;;;9.70;9.40;;;6.60;99.90;;;;;;5045775;28;20251;-82
2023/10/06 05:53:48;;;;;;;9.80;9.50;;;6.60;99.90;;;;;;5044635;28;20331;-82
2023/10/06 05:56:18;;;;;;;9.43;9.13;;;6.60;99.90;;;;;;5047273;28;20228;-84
2023/10/06 05:58:48;;;;;;;9.80;9.50;;;6.60;99.90;;;;;;5045978;28;20244;-88
2023/10/06 06:01:20;;;;;;;9.70;9.40;;;6.60;99.90;;;;;;5044580;28;20236;-85
2023/10/06 06:03:49;;;;;;;9.70;9.40;;;6.60;99.90;;;;;;5044462;28;20302;-88
2023/10/06 06:06:22;;;;;;;9.93;9.63;;;6.70;99.90;;;;;;5045290;28;20235;-84
2023/10/06 06:08:49;;;;;;;9.63;9.33;;;6.70;99.90;;;;;;5048822;28;20295;-84
2023/10/06 06:11:17;;;;;;;9.70;9.40;;;6.80;99.90;;;;;;5047105;28;20294;-84
2023/10/06 06:13:44;;;;;;;9.73;9.43;;;6.80;99.90;;;;;;5046281;28;20262;-85
2023/10/06 06:16:13;;;;;;;9.77;9.47;;;6.90;99.90;;;;;;5047346;28;20292;-85
2023/10/06 06:18:42;;;;;;;9.90;9.60;;;6.90;99.90;;;;;;5048423;28;20223;-85
2023/10/06 06:21:12;;;;;;;9.37;9.07;;;7.00;99.90;;;;;;5048257;28;20247;-86
2023/10/06 06:23:46;;;;;;;9.60;9.30;;;7.00;99.90;;;;;;5047730;28;20235;-85
2023/10/06 06:26:16;;;;;;;9.20;8.90;;;7.00;99.90;;;;;;5047424;28;20234;-86
2023/10/06 06:28:44;;;;;;;9.23;8.93;;;7.00;99.90;;;;;;5048340;28;20242;-85
2023/10/06 06:31:16;;;;;;;9.13;8.83;;;7.00;99.90;;;;;;5048087;28;20321;-87
2023/10/06 06:33:55;;;;;;;9.40;9.10;;;7.10;99.90;;;;;;5047423;28;20352;-85
2023/10/06 06:36:23;;;;;;;9.23;8.93;;;7.20;99.90;;;;;;5050857;28;20326;-86
2023/10/06 06:38:52;;;;;;;9.50;9.20;;;7.20;99.90;;;;;;5050325;28;20223;-86
2023/10/06 06:41:21;;;;;;;9.07;8.77;;;7.30;99.90;;;;;;5048318;28;20242;-85
2023/10/06 06:43:48;;;;;;;9.10;8.80;;;7.30;99.90;;;;;;5047742;28;20224;-85
2023/10/06 06:46:18;;;;;;;9.27;8.97;;;7.40;99.90;;;;;;5046857;28;20231;-86
2023/10/06 06:48:46;;;;;;;9.10;8.80;;;7.50;99.90;;;;;;5046445;28;20227;-85
2023/10/06 06:51:15;;;;;;;9.20;8.90;;;7.50;99.90;;;;;;5046602;28;20267;-85
2023/10/06 06:53:42;;;;;;;9.30;9.00;;;7.60;99.90;;;;;;5047612;28;20233;-86
2023/10/06 06:56:11;;;;;;;9.27;8.97;;;7.60;99.90;;;;;;5046409;28;20246;-85
2023/10/06 06:58:38;;;;;;;9.00;8.73;;;7.70;99.90;;;;;;5046964;28;20290;-85
2023/10/06 07:01:07;;;;;;;9.03;8.73;;;7.70;99.90;;;;;;5046439;28;20251;-85
2023/10/06 07:03:37;;;;;;;9.10;8.80;;;7.80;99.90;;;;;;5046390;28;20239;-86
2023/10/06 07:06:14;;;;;;;9.10;8.80;;;7.80;99.90;;;;;;5046010;28;20232;-83
2023/10/06 07:08:42;;;;;;;9.13;8.83;;;8.00;99.90;;;;;;5046678;28;20238;-86
2023/10/06 07:11:12;;;;;;;9.30;9.00;;;8.10;99.90;;;;;;5046934;28;20232;-86
2023/10/06 07:13:42;;;;;;;9.10;8.80;;;8.30;99.90;;;;;;5046631;28;20267;-85
2023/10/06 07:16:09;;;;;;;9.10;8.80;;;8.40;99.90;;;;;;5046270;28;20246;-85
2023/10/06 07:21:31;;;;;;;9.30;9.00;;;8.60;99.90;;;;;;5046090;28;20258;-85
2023/10/06 07:23:59;;;;;;;9.37;9.07;;;8.70;99.90;;;;;;5047321;28;20219;-85
2023/10/06 07:26:32;;;;;;;9.40;9.10;;;8.90;99.90;;;;;;5048612;28;20227;-85
2023/10/06 07:31:48;;;;;;;9.70;9.40;;;9.10;99.90;;;;;;5047400;28;20228;-83
2023/10/06 07:34:16;;;;;;;9.83;9.53;;;9.20;99.90;;;;;;5047843;28;20234;-81
2023/10/06 07:36:44;;;;;;;9.37;9.07;;;9.40;99.90;;;;;;5048042;28;20287;-81
2023/10/06 07:39:20;;;;;;;9.80;9.50;;;9.50;99.90;;;;;;5047712;28;20232;-82
2023/10/06 07:41:50;;;;;;;9.30;9.00;;;9.60;99.90;;;;;;5051114;28;20254;-82
2023/10/06 07:44:24;;;;;;;9.67;9.37;;;9.60;99.90;;;;;;5051684;28;20215;-81
2023/10/06 07:46:52;;;;;;;9.93;9.63;;;9.70;99.90;;;;;;5050793;28;20239;-81
2023/10/06 07:49:21;;;;;;;9.83;9.53;;;9.90;99.90;;;;;;5049489;28;20242;-80
2023/10/06 07:51:50;;;;;;;10.37;10.07;;;10.00;99.90;;;;;;5050405;28;20262;-81
2023/10/06 07:54:30;;;;;;;10.63;10.33;;;10.20;99.90;;;;;;5049425;28;20294;-81
2023/10/06 07:57:01;;;;;;;10.40;10.10;;;10.30;99.90;;;;;;5048682;28;20254;-80
2023/10/06 07:59:28;;;;;;;10.23;9.93;;;10.50;99.90;;;;;;5048849;28;20243;-82
2023/10/06 08:01:57;;;;;;;10.40;10.10;;;10.70;99.90;;;;;;5049032;28;20307;-81
2023/10/06 08:04:26;;;;;;;10.53;10.23;;;10.80;99.90;;;;;;5053183;28;20230;-81
2023/10/06 08:07:05;;;;;;;10.90;10.60;;;11.00;99.90;;;;;;5053254;28;20263;-81
2023/10/06 08:09:38;;;;;;;10.80;10.50;;;11.10;99.90;;;;;;5051379;28;20241;-82
2023/10/06 08:12:17;;;;;;;11.00;10.70;;;11.20;99.90;;;;;;5050474;28;20235;-81
2023/10/06 08:14:44;;;;;;;10.47;10.17;;;11.30;99.90;;;;;;5051218;28;20251;-82
2023/10/06 08:17:11;;;;;;;10.60;10.30;;;11.50;99.90;;;;;;5049748;28;20299;-81
2023/10/06 08:19:41;;;;;;;10.67;10.37;;;11.60;99.90;;;;;;5050526;28;20299;-81
2023/10/06 08:22:22;;;;;;;10.50;10.20;;;11.70;99.90;;;;;;5052533;28;20259;-83
2023/10/06 08:24:49;;;;;;;10.10;9.80;;;11.90;99.90;;;;;;5040681;28;20239;-83
2023/10/06 08:27:23;;;;;;;10.17;9.87;;;12.10;99.90;;;;;;5050051;28;20255;-82
2023/10/06 08:32:36;;;;;;;10.30;10.00;;;12.60;99.90;;;;;;5045196;28;20242;-81
2023/10/06 08:35:12;;;;;;;10.37;10.07;;;12.80;99.90;;;;;;5055745;28;20216;-80
2023/10/06 08:37:43;;;;;;;10.17;9.87;;;13.10;99.90;;;;;;5056563;28;20262;-80
2023/10/06 08:40:16;;;;;;;10.30;10.00;;;13.20;99.90;;;;;;5057030;28;20263;-79
2023/10/06 08:42:51;;;;;;;10.40;10.10;;;13.50;99.90;;;;;;5055875;28;20251;-81
2023/10/06 08:45:21;;;;;;;9.80;9.50;;;13.70;99.90;;;;;;5052171;28;20227;-81
2023/10/06 08:47:50;;;;;;;10.03;9.73;;;13.90;99.90;;;;;;5052922;28;20231;-81
2023/10/06 08:50:22;;;;;;;10.17;9.87;;;14.10;99.90;;;;;;5051596;28;20274;-81
2023/10/06 08:52:59;;;;;;;10.00;9.70;;;14.30;99.90;;;;;;5048863;28;20231;-84
2023/10/06 08:55:28;;;;;;;10.17;9.87;;;14.50;99.90;;;;;;5047144;28;20224;-85
2023/10/06 08:58:14;;;;;;;10.10;9.80;;;14.80;99.90;;;;;;5045520;28;20255;-87
2023/10/06 09:00:43;;;;;;;10.10;9.80;;;15.00;99.90;;;;;;5044443;28;20245;-85
2023/10/06 09:03:14;;;;;;;10.20;9.90;;;15.10;99.90;;;;;;5046297;28;20232;-84
2023/10/06 09:05:42;;;;;;;10.10;9.80;;;15.30;99.90;;;;;;5046777;28;20318;-81
2023/10/06 09:08:11;;;;;;;9.82;9.52;;;15.50;99.90;;;;;;5046062;28;20215;-82
2023/10/06 09:10:41;;;;;;;10.05;9.75;;;15.60;99.90;;;;;;5046779;28;20313;-82
2023/10/06 09:16:02;;;;;;;9.95;9.65;;;16.00;99.90;;;;;;5027286;28;20228;-82
2023/10/06 09:21:19;;;;;;;10.10;9.80;;;16.20;99.90;;;;;;5042329;28;20235;-83
2023/10/06 09:23:52;;;;;;;10.07;9.77;;;16.40;99.90;;;;;;5047822;28;20266;-81
2023/10/06 09:26:30;;;;;;;10.18;9.88;;;16.50;99.90;;;;;;5048072;28;20241;-82
2023/10/06 09:31:46;;;;;;;10.20;9.90;;;16.90;99.90;;;;;;5045636;28;20243;-87
2023/10/06 09:34:27;;;;;;;10.40;10.10;;;17.00;99.90;;;;;;5046102;28;20243;-84
2023/10/06 09:36:56;;;;;;;10.68;10.38;;;17.10;99.90;;;;;;5045527;28;20299;-83
2023/10/06 09:39:45;;;;;;;10.30;10.00;;;17.20;99.90;;;;;;5047056;28;20230;-83
2023/10/06 09:42:14;;;;;;;10.15;9.85;;;17.50;99.90;;;;;;5046405;28;20231;-84
2023/10/06 09:47:28;;;;;;;10.23;9.93;;;17.80;99.90;;;;;;5047094;28;21088;-84
2023/10/06 09:50:07;;;;;;;10.15;9.85;;;17.90;99.90;;;;;;5049168;28;20319;-85
2023/10/06 09:52:42;;;;;;;10.18;9.88;;;18.10;99.90;;;;;;5049636;28;20322;-84
2023/10/06 09:55:09;;;;;;;10.27;9.98;;;18.30;99.90;;;;;;5054724;28;20230;-84
2023/10/06 09:57:38;;;;;;;10.18;9.88;;;18.40;99.90;;;;;;5049997;28;20223;-82
2023/10/06 10:00:16;;;;;;;10.30;10.00;;;18.40;99.90;;;;;;5050221;28;20234;-84
2023/10/06 10:02:45;;;;;;;10.07;9.77;;;18.40;99.90;;;;;;5049860;28;20310;-83
2023/10/06 10:05:14;;;;;;;10.57;10.27;;;18.60;99.90;;;;;;5049748;28;20235;-85
2023/10/06 10:07:42;;;;;;;10.30;10.00;;;18.60;99.90;;;;;;5053168;28;20334;-85
2023/10/06 10:10:11;;;;;;;10.05;9.75;;;18.70;99.90;;;;;;5049904;28;20251;-84
2023/10/06 10:12:57;;;;;;;9.90;9.60;;;18.90;99.90;;;;;;5041451;28;20300;-84
2023/10/06 10:21:54;;;;;;;9.98;9.68;;;19.20;99.90;;;;;;5121865;27;20236;-83
2023/10/06 10:24:22;;;;;;;9.85;9.55;;;19.50;99.90;;;;;;5121808;28;20247;-84
2023/10/06 10:26:53;;;;;;;10.13;9.82;;;19.60;99.90;;;;;;5121100;28;20225;-85
2023/10/06 10:29:31;;;;;;;10.30;10.00;;;20.00;99.90;;;;;;5121762;28;20320;-81
2023/10/06 10:32:12;;;;;;;9.93;9.63;;;20.30;99.90;;;;;;5122278;27;20232;-81
2023/10/06 10:35:12;;;;;;;10.18;9.88;;;20.50;99.90;;;;;;5122729;27;20244;-81
2023/10/06 10:38:02;;;;;;;10.30;10.00;;;20.70;99.90;;;;;;5123139;27;20322;-82
2023/10/06 10:40:31;;;;;;;10.40;10.10;;;20.60;99.90;;;;;;5123691;27;20233;-82
2023/10/06 10:43:09;;;;;;;10.50;10.20;;;20.60;99.90;;;;;;5125112;27;20229;-82
2023/10/06 10:45:43;;;;;;;10.80;10.50;;;20.90;99.90;;;;;;5124063;28;20247;-84
2023/10/06 10:48:18;;;;;;;10.60;10.30;;;21.20;99.90;;;;;;5122067;27;20228;-85
2023/10/06 10:51:12;;;;;;;10.77;10.48;;;21.40;99.90;;;;;;5103799;27;20255;-84
2023/10/06 10:53:43;;;;;;;10.68;10.38;;;21.50;99.90;;;;;;5100468;28;20230;-83
2023/10/06 10:56:14;;;;;;;10.30;10.00;;;21.70;99.90;;;;;;5104100;28;20243;-85
2023/10/06 10:58:56;;;;;;;10.10;9.80;;;21.50;99.90;;;;;;5124552;27;20240;-85
2023/10/06 11:01:31;;;;;;;10.30;10.00;;;21.40;99.90;;;;;;5126369;28;20221;-83
2023/10/06 11:04:25;;;;;;;10.20;9.90;;;21.10;99.90;;;;;;5127261;27;20228;-83
2023/10/06 11:09:47;;;;;;;10.70;10.40;;;21.20;99.90;;;;;;5126268;27;20209;-82
2023/10/06 11:12:29;;;;;;;10.60;10.30;;;21.20;99.90;;;;;;5126673;28;20232;-84
2023/10/06 11:15:03;;;;;;;10.80;10.50;;;21.50;99.90;;;;;;5126581;27;20221;-83
2023/10/06 11:17:35;;;;;;;10.50;10.20;;;21.70;99.90;;;;;;5124238;27;20264;-82
2023/10/06 11:20:13;;;;;;;10.70;10.40;;;21.90;99.90;;;;;;5125021;27;20221;-83
2023/10/06 11:23:03;;;;;;;10.45;10.15;;;21.80;99.90;;;;;;5124136;27;20239;-82
2023/10/06 11:25:32;;;;;;;10.45;10.15;;;21.70;99.90;;;;;;5123448;27;20244;-83
2023/10/06 11:28:03;;;;;;;10.55;10.25;;;21.70;99.90;;;;;;5121081;27;20237;-83
2023/10/06 11:30:32;;;;;;;10.38;10.07;;;21.60;99.90;;;;;;5109593;28;20229;-82
2023/10/06 11:35:50;;;;;;;10.70;10.40;;;21.70;99.90;;;;;;5108658;27;20249;-83
2023/10/06 11:38:19;;;;;;;10.52;10.23;;;21.70;99.90;;;;;;5107911;28;20276;-83
2023/10/06 11:40:47;;;;;;;10.60;10.30;;;21.80;99.90;;;;;;5107624;28;20234;-82
2023/10/06 11:43:17;;;;;;;10.50;10.20;;;22.10;99.90;;;;;;5108209;28;20276;-83
2023/10/06 11:45:46;;;;;;;10.55;10.25;;;22.40;99.90;;;;;;5108297;28;20225;-83
2023/10/06 11:51:12;;;;;;;10.50;10.20;;;23.00;99.90;;;;;;5110884;28;20224;-82
2023/10/06 11:53:41;;;;;;;10.65;10.35;;;23.30;99.90;;;;;;5110120;28;20229;-83
2023/10/06 11:56:11;;;;;;;10.60;10.30;;;23.40;99.90;;;;;;5108735;28;20257;-83
2023/10/06 11:58:40;;;;;;;10.65;10.35;;;23.40;99.90;;;;;;5107695;28;20233;-83
2023/10/06 12:01:08;;;;;;;10.70;10.40;;;23.60;99.90;;;;;;5107040;28;20217;-82
2023/10/06 12:03:39;;;;;;;10.45;10.15;;;23.90;99.90;;;;;;5111878;28;20240;-83
2023/10/06 12:06:11;;;;;;;10.65;10.35;;;24.20;99.90;;;;;;5111004;28;20239;-83
2023/10/06 12:08:52;;;;;;;10.60;10.30;;;24.50;99.90;;;;;;5110032;28;20221;-83
2023/10/06 12:11:24;;;;;;;10.55;10.25;;;24.40;99.90;;;;;;5108893;28;20214;-83
2023/10/06 12:13:53;;;;;;;10.38;10.07;;;24.30;99.90;;;;;;5107521;28;20237;-82
2023/10/06 12:16:20;;;;;;;10.63;10.32;;;24.10;99.90;;;;;;5106868;28;20253;-83
2023/10/06 12:18:50;;;;;;;10.60;10.30;;;24.20;99.90;;;;;;5107793;28;20240;-83
2023/10/06 12:21:29;;;;;;;10.35;10.05;;;24.40;99.90;;;;;;5107966;28;20213;-83
2023/10/06 12:24:01;;;;;;;10.50;10.20;;;24.80;99.90;;;;;;5108107;28;20306;-83
2023/10/06 12:26:28;;;;;;;10.40;10.10;;;25.10;99.90;;;;;;5107984;28;20324;-83
2023/10/06 12:29:08;;;;;;;10.60;10.30;;;25.00;99.90;;;;;;5105553;28;20237;-87
2023/10/06 12:31:38;;;;;;;10.50;10.20;;;25.00;99.90;;;;;;5105907;28;20229;-87
2023/10/06 12:39:40;;;;;;;10.32;10.02;;;25.60;99.90;;;;;;5104474;28;20217;-90
2023/10/06 12:42:31;;;;;;;10.32;10.02;;;26.20;99.90;;;;;;5108003;28;20229;-87
2023/10/06 12:45:05;;;;;;;10.27;9.98;;;26.30;99.90;;;;;;5106299;28;20230;-85
2023/10/06 12:47:38;;;;;;;10.30;10.00;;;25.90;99.90;;;;;;5110796;28;20239;-88
2023/10/06 12:50:06;;;;;;;10.27;9.98;;;25.40;99.90;;;;;;5108492;28;20344;-86
2023/10/06 12:58:16;;;;;;;10.15;9.85;;;25.10;99.90;;;;;;5104827;27;20327;-86
2023/10/06 13:00:45;;;;;;;10.10;9.80;;;25.10;99.90;;;;;;5104784;28;20214;-87
2023/10/06 13:03:17;;;;;;;10.20;9.90;;;25.10;99.90;;;;;;5104094;28;20221;-86
2023/10/06 13:05:56;;;;;;;10.10;9.80;;;25.10;99.90;;;;;;5104384;28;20229;-88
2023/10/06 13:11:22;;;;;;;10.20;9.90;;;25.10;99.90;;;;;;5104948;28;20306;-88
2023/10/06 13:13:51;;;;;;;10.18;9.88;;;25.10;99.90;;;;;;5103837;28;20222;-88
2023/10/06 13:16:18;;;;;;;10.80;10.50;;;25.30;99.90;;;;;;5103972;28;20240;-87
2023/10/06 13:18:48;;;;;;;10.45;10.15;;;25.60;99.90;;;;;;5103379;28;20241;-87
2023/10/06 13:21:17;;;;;;;10.60;10.30;;;25.80;99.90;;;;;;5103696;28;20232;-88
2023/10/06 13:23:58;;;;;;;10.25;9.95;;;25.50;99.90;;;;;;5103923;28;20265;-86
2023/10/06 13:26:28;;;;;;;10.32;10.02;;;25.40;99.90;;;;;;5104082;28;20248;-87
2023/10/06 13:28:55;;;;;;;10.40;10.10;;;25.30;99.90;;;;;;5104111;28;20237;-86
2023/10/06 13:31:23;;;;;;;10.10;9.80;;;25.50;99.90;;;;;;5104784;28;20234;-87
2023/10/06 13:36:32;;;;;;;10.77;10.48;;;26.00;99.90;;;;;;5103185;28;20225;-87
2023/10/06 13:41:42;;;;;;;10.80;10.50;;;26.00;99.90;;;;;;5104671;27;20233;-88
2023/10/06 13:44:10;;;;;;;10.30;10.00;;;26.10;99.90;;;;;;5104404;28;20218;-87
2023/10/06 13:46:52;;;;;;;10.13;9.82;;;26.00;99.90;;;;;;5103933;28;20233;-87
2023/10/06 13:49:19;;;;;;;10.30;10.00;;;26.00;99.90;;;;;;5104448;28;20259;-86
2023/10/06 13:51:47;;;;;;;10.40;10.10;;;25.70;99.90;;;;;;5103519;28;20256;-86
2023/10/06 13:54:18;;;;;;;10.75;10.45;;;25.50;99.90;;;;;;5104403;28;20313;-87
2023/10/06 13:59:34;;;;;;;10.30;10.00;;;26.00;99.90;;;;;;5108925;28;20245;-87
2023/10/06 14:02:02;;;;;;;10.50;10.20;;;26.30;99.90;;;;;;5107163;28;20234;-88
2023/10/06 14:04:34;;;;;;;10.68;10.38;;;26.50;99.90;;;;;;5107442;28;20230;-87
2023/10/06 14:07:05;;;;;;;10.60;10.30;;;26.20;99.90;;;;;;5104129;28;20702;-87
2023/10/06 14:09:34;;;;;;;10.60;10.30;;;25.90;99.90;;;;;;5103929;28;20260;-88
2023/10/06 14:14:59;;;;;;;10.40;10.10;;;25.70;99.90;;;;;;5108881;27;20229;-87
2023/10/06 14:17:34;;;;;;;10.90;10.60;;;25.70;99.90;;;;;;5103571;28;20304;-87
2023/10/06 14:20:10;;;;;;;10.70;10.40;;;25.90;99.90;;;;;;5102839;28;20228;-87
2023/10/06 14:22:50;;;;;;;10.55;10.25;;;25.90;99.90;;;;;;5102799;28;21101;-87
2023/10/06 14:25:21;;;;;;;10.50;10.20;;;26.10;99.90;;;;;;5104617;28;20221;-87
2023/10/06 14:27:52;;;;;;;10.50;10.20;;;26.60;99.90;;;;;;5104443;28;20253;-87
2023/10/06 14:30:21;;;;;;;10.20;9.90;;;26.90;99.90;;;;;;5101007;28;20232;-88
2023/10/06 14:33:07;;;;;;;10.10;9.80;;;27.10;99.90;;;;;;5103962;28;20221;-86
2023/10/06 14:36:09;;;;;;;10.30;10.00;;;27.10;99.90;;;;;;5103542;28;20252;-86
2023/10/06 14:46:53;;;;;;;10.70;10.40;;;27.40;99.90;;;;;;5103663;28;20387;-85
2023/10/06 14:52:09;;;;;;;11.10;10.80;;;27.30;99.90;;;;;;5103495;28;20221;-86
2023/10/06 14:54:38;;;;;;;11.10;10.80;;;27.40;99.90;;;;;;5102516;28;20236;-86
2023/10/06 14:57:07;;;;;;;11.10;10.80;;;27.50;99.90;;;;;;5102538;28;20248;-86
2023/10/06 14:59:41;;;;;;;11.10;10.80;;;27.70;99.90;;;;;;5104013;28;20237;-87
2023/10/06 15:02:09;;;;;;;11.30;11.00;;;27.70;99.90;;;;;;5103479;28;20234;-86
2023/10/06 15:04:38;;;;;;;10.40;10.10;;;27.70;99.90;;;;;;5105295;28;20221;-85
2023/10/06 15:07:08;;;;;;;10.60;10.30;;;27.90;99.90;;;;;;5106240;28;20233;-87
2023/10/06 15:09:37;;;;;;;10.60;10.30;;;28.20;99.90;;;;;;5106433;28;20244;-86
2023/10/06 15:12:07;;;;;;;10.38;10.07;;;28.40;99.90;;;;;;5106237;28;20253;-87